La Suprema — IBIL — position and weather

sailwx.info

Track history (hours):
 
Tides and Currents Weather Stations Pressure Air Temp Water Temp Dewpoint Dewpoint Depression Visibility Wind Speed Wind Dir Waves Ship Positions

La Suprema

Last reported at 2016-May-28 20:32 UTC. Time now 2016-May-28 20:39 UTC.
Position N 38°08' E 013°22'.

Length 211 m; draft 7.5 m.

Type: Passenger vessel. MMSI: 247083700.

Date/timePositionNaut miles runAvg speedWind from/ knotsBaromVisibWave heightAir tempDewpointWater temp
2016-May-28 20:32N 38°08' E 013°22'0 0.0
2016-May-28 19:32N 38°08' E 013°22'0 0.0
2016-May-28 18:31N 38°08' E 013°22'0 0.0
2016-May-28 17:31N 38°08' E 013°22'1 0.5
2016-May-28 16:34N 38°08' E 013°22'1717.0
2016-May-28 15:33N 38°24' E 013°15'21222.9
2016-May-28 06:17N 41°23' E 010°48'1824.3
2016-May-28 05:34N 41°38' E 010°35'2524.2
2016-May-28 04:31N 41°59' E 010°17'2324.3
2016-May-28 03:34N 42°19' E 010°00'2424.2
2016-May-28 02:33N 42°41' E 009°49'2424.1
2016-May-28 01:34N 43°04' E 009°37'2424.1
2016-May-28 00:34N 43°26' E 009°25'2423.9
2016-May-27 23:34N 43°48' E 009°13'2424.1
2016-May-27 22:34N 44°11' E 009°01'1414.2
2016-May-27 21:33N 44°25' E 008°55'0 0.0
2016-May-27 20:33N 44°25' E 008°55'0 0.0
2016-May-27 19:33N 44°25' E 008°55'0 0.0
2016-May-27 18:33N 44°25' E 008°55'0 0.0
2016-May-27 17:33N 44°25' E 008°55'0 0.0
2016-May-27 16:33N 44°25' E 008°55'3 2.7
2016-May-27 15:33N 44°23' E 008°57'2323.4
2016-May-27 14:34N 44°02' E 009°14'2323.4
2016-May-27 13:34N 43°42' E 009°30'2323.5
2016-May-27 12:34N 43°22' E 009°47'2323.4
2016-May-27 11:33N 43°01' E 010°00'4622.5
2016-May-27 09:32N 42°20' E 010°29'5023.7
2016-May-27 07:27N 41°37' E 011°00'2123.4
2016-May-27 06:34N 41°18' E 011°13'2323.1
2016-May-27 05:33N 40°57' E 011°27'12823.6
2016-May-27 00:07N 39°04' E 012°45'1323.3
2016-May-26 23:34N 38°52' E 012°53'2323.2
2016-May-26 22:34N 38°33' E 013°09'2323.4
2016-May-26 21:34N 38°13' E 013°24'5 5.0
2016-May-26 20:31N 38°08' E 013°22'0 0.0
2016-May-26 19:31N 38°08' E 013°22'0 0.0
2016-May-26 18:33N 38°08' E 013°22'0 0.0
2016-May-26 17:33N 38°08' E 013°22'2 2.3
2016-May-26 16:33N 38°09' E 013°24'2019.7
2016-May-26 15:33N 38°27' E 013°13'2221.9
2016-May-26 14:33N 38°45' E 012°57'2222.2
2016-May-26 13:33N 39°04' E 012°42'2222.4
2016-May-26 12:33N 39°23' E 012°27'13322.2
2016-May-26 06:33N 41°16' E 010°54'2722.3
2016-May-26 05:22N 41°38' E 010°35'2322.2
2016-May-26 04:20N 41°57' E 010°18'1822.5
2016-May-26 03:31N 42°13' E 010°05'2722.6
2016-May-26 02:20N 42°37' E 009°49'1822.5
2016-May-26 01:33N 42°53' E 009°40'2222.5
2016-May-26 00:33N 43°15' E 009°30'2222.3
2016-May-25 23:34N 43°36' E 009°20'2322.5
2016-May-25 22:33N 43°57' E 009°09'2322.6
2016-May-25 21:33N 44°18' E 008°59'7 6.8
2016-May-25 20:32N 44°25' E 008°55'0 0.0
2016-May-25 19:32N 44°25' E 008°55'0 0.0
2016-May-25 18:28N 44°25' E 008°55'0 0.0
2016-May-25 17:28N 44°25' E 008°55'0 0.2
2016-May-25 16:34N 44°25' E 008°55'1817.7
2016-May-25 15:33N 44°09' E 009°08'2323.2
2016-May-25 14:34N 43°50' E 009°25'2322.9
2016-May-25 13:33N 43°30' E 009°41'2323.2
2016-May-25 12:34N 43°10' E 009°56'30422.6
2016-May-24 23:07N 38°40' E 013°03'1323.6
2016-May-24 22:34N 38°29' E 013°12'2322.7
2016-May-24 21:33N 38°09' E 013°25'3 2.5
2016-May-24 20:31N 38°08' E 013°22'0 0.0
2016-May-24 19:31N 38°08' E 013°22'0 0.0
2016-May-24 18:31N 38°08' E 013°22'0 0.0
2016-May-24 17:33N 38°08' E 013°22'0 0.1
2016-May-24 16:34N 38°08' E 013°22'1413.5
2016-May-24 15:33N 38°21' E 013°17'30122.9
2016-May-24 02:26N 42°38' E 009°51'2123.1
2016-May-24 01:31N 42°57' E 009°40'2122.3
2016-May-24 00:33N 43°17' E 009°31'2121.4
2016-May-23 23:33N 43°37' E 009°20'2121.5
2016-May-23 22:33N 43°57' E 009°09'2221.6
2016-May-23 21:33N 44°18' E 008°59'7 7.4
2016-May-23 20:33N 44°25' E 008°55'0 0.0
2016-May-23 19:33N 44°25' E 008°55'0 0.0
2016-May-23 18:32N 44°25' E 008°55'0 0.0
2016-May-23 17:29N 44°25' E 008°55'0 0.0
2016-May-23 16:31N 44°25' E 008°55'0 0.0
2016-May-23 15:25N 44°25' E 008°55'0 0.0
2016-May-23 14:33N 44°25' E 008°55'0 0.0
2016-May-23 13:30N 44°25' E 008°55'0 0.0
2016-May-23 12:32N 44°25' E 008°55'0 0.0
2016-May-23 11:32N 44°25' E 008°55'0 0.0
2016-May-23 10:32N 44°25' E 008°55'0 0.0
2016-May-23 09:31N 44°25' E 008°55'0 0.0
2016-May-23 08:28N 44°25' E 008°55'0 0.0
2016-May-23 07:33N 44°25' E 008°55'0 0.0
2016-May-23 06:33N 44°25' E 008°55'0 0.0
2016-May-23 05:32N 44°25' E 008°55'0 0.0
2016-May-23 04:29N 44°25' E 008°55'0 0.0
2016-May-23 03:23N 44°25' E 008°55'0 0.0
2016-May-23 02:31N 44°25' E 008°55'0 0.0
2016-May-23 01:31N 44°25' E 008°55'0 0.0
2016-May-23 00:30N 44°25' E 008°55'0 0.0
2016-May-22 23:33N 44°25' E 008°55'0 0.0
2016-May-22 22:32N 44°25' E 008°55'0 0.0
2016-May-22 21:26N 44°25' E 008°55'0 0.0
2016-May-22 20:32N 44°25' E 008°55'0 0.0
2016-May-22 19:31N 44°25' E 008°55'0 0.0
2016-May-22 18:28N 44°25' E 008°55'0 0.0
2016-May-22 17:33N 44°25' E 008°55'1212.2
2016-May-22 16:33N 44°14' E 009°04'2323.4
2016-May-22 15:34N 43°54' E 009°20'2323.2
2016-May-22 14:34N 43°34' E 009°36'2322.9
2016-May-22 13:34N 43°14' E 009°53'2222.1
2016-May-22 12:33N 42°53' E 009°59'4722.7
2016-May-22 10:29N 42°13' E 010°34'11622.9
2016-May-22 05:25N 40°30' E 011°46'8822.7
2016-May-22 01:33N 39°13' E 012°40'2423.1
2016-May-22 00:31N 38°52' E 012°55'2223.1
2016-May-21 23:33N 38°33' E 013°08'2323.0
2016-May-21 22:34N 38°13' E 013°24'5 5.5
2016-May-21 21:33N 38°08' E 013°22'0 0.0
2016-May-21 20:33N 38°08' E 013°22'0 0.0
2016-May-21 19:32N 38°08' E 013°22'0 0.0
2016-May-21 18:32N 38°08' E 013°22'0 0.0
2016-May-21 17:32N 38°08' E 013°22'1 1.1
2016-May-21 16:33N 38°07' E 013°23'1919.0
2016-May-21 15:33N 38°25' E 013°15'27322.7
2016-May-21 03:32N 42°16' E 010°03'2722.3
2016-May-21 02:19N 42°40' E 009°47'1722.5
2016-May-21 01:33N 42°56' E 009°38'2222.1
2016-May-21 00:33N 43°17' E 009°29'2322.6
2016-May-20 23:33N 43°39' E 009°19'2222.4
2016-May-20 22:33N 43°60' E 009°08'2221.9
2016-May-20 21:33N 44°20' E 008°58'5 4.5
2016-May-20 20:32N 44°25' E 008°55'0 0.0
2016-May-20 19:26N 44°25' E 008°55'0 0.0
2016-May-20 18:31N 44°25' E 008°55'0 0.0
2016-May-20 17:31N 44°25' E 008°55'0 0.2
2016-May-20 16:33N 44°25' E 008°55'1413.9
2016-May-20 15:33N 44°13' E 009°06'2323.4
2016-May-20 14:34N 43°53' E 009°23'2322.9
2016-May-20 13:34N 43°33' E 009°38'2322.7
2016-May-20 12:33N 43°13' E 009°53'2221.7
2016-May-20 11:33N 42°52' E 010°01'31422.4
2016-May-19 21:33N 38°17' E 013°21'9 8.7
2016-May-19 20:31N 38°08' E 013°22'0 0.0
2016-May-19 19:34N 38°08' E 013°22'0 0.0
2016-May-19 18:33N 38°08' E 013°22'0 0.0
2016-May-19 17:33N 38°08' E 013°22'1 1.4
2016-May-19 16:33N 38°08' E 013°24'36022.5
2016-May-19 00:33N 43°20' E 009°29'2222.2
2016-May-18 23:33N 43°41' E 009°18'2221.9
2016-May-18 22:33N 44°02' E 009°07'2221.9
2016-May-18 21:33N 44°22' E 008°57'3 2.8
2016-May-18 20:33N 44°25' E 008°55'  
Track history (hours):
 
Tides and Currents Weather Stations Pressure Air Temp Water Temp Dewpoint Dewpoint Depression Visibility Wind Speed Wind Dir Waves Ship Positions

La Suprema

Last reported at 2016-May-28 20:32 UTC. Time now 2016-May-28 20:39 UTC.
Position N 38°08' E 013°22'.

Length 211 m; draft 7.5 m.

Type: Passenger vessel. MMSI: 247083700.

Date/timePositionNaut miles runAvg speedWind from/ knotsBaromVisibWave heightAir tempDewpointWater temp
2016-May-28 20:32N 38°08' E 013°22'0 0.0
2016-May-28 19:32N 38°08' E 013°22'0 0.0
2016-May-28 18:31N 38°08' E 013°22'0 0.0
2016-May-28 17:31N 38°08' E 013°22'1 0.5
2016-May-28 16:34N 38°08' E 013°22'1717.0
2016-May-28 15:33N 38°24' E 013°15'21222.9
2016-May-28 06:17N 41°23' E 010°48'1824.3
2016-May-28 05:34N 41°38' E 010°35'2524.2
2016-May-28 04:31N 41°59' E 010°17'2324.3
2016-May-28 03:34N 42°19' E 010°00'2424.2
2016-May-28 02:33N 42°41' E 009°49'2424.1
2016-May-28 01:34N 43°04' E 009°37'2424.1
2016-May-28 00:34N 43°26' E 009°25'2423.9
2016-May-27 23:34N 43°48' E 009°13'2424.1
2016-May-27 22:34N 44°11' E 009°01'1414.2
2016-May-27 21:33N 44°25' E 008°55'0 0.0
2016-May-27 20:33N 44°25' E 008°55'0 0.0
2016-May-27 19:33N 44°25' E 008°55'0 0.0
2016-May-27 18:33N 44°25' E 008°55'0 0.0
2016-May-27 17:33N 44°25' E 008°55'0 0.0
2016-May-27 16:33N 44°25' E 008°55'3 2.7
2016-May-27 15:33N 44°23' E 008°57'2323.4
2016-May-27 14:34N 44°02' E 009°14'2323.4
2016-May-27 13:34N 43°42' E 009°30'2323.5
2016-May-27 12:34N 43°22' E 009°47'2323.4
2016-May-27 11:33N 43°01' E 010°00'4622.5
2016-May-27 09:32N 42°20' E 010°29'5023.7
2016-May-27 07:27N 41°37' E 011°00'2123.4
2016-May-27 06:34N 41°18' E 011°13'2323.1
2016-May-27 05:33N 40°57' E 011°27'12823.6
2016-May-27 00:07N 39°04' E 012°45'1323.3
2016-May-26 23:34N 38°52' E 012°53'2323.2
2016-May-26 22:34N 38°33' E 013°09'2323.4
2016-May-26 21:34N 38°13' E 013°24'5 5.0
2016-May-26 20:31N 38°08' E 013°22'0 0.0
2016-May-26 19:31N 38°08' E 013°22'0 0.0
2016-May-26 18:33N 38°08' E 013°22'0 0.0
2016-May-26 17:33N 38°08' E 013°22'2 2.3
2016-May-26 16:33N 38°09' E 013°24'2019.7
2016-May-26 15:33N 38°27' E 013°13'2221.9
2016-May-26 14:33N 38°45' E 012°57'2222.2
2016-May-26 13:33N 39°04' E 012°42'2222.4
2016-May-26 12:33N 39°23' E 012°27'13322.2
2016-May-26 06:33N 41°16' E 010°54'2722.3
2016-May-26 05:22N 41°38' E 010°35'2322.2
2016-May-26 04:20N 41°57' E 010°18'1822.5
2016-May-26 03:31N 42°13' E 010°05'2722.6
2016-May-26 02:20N 42°37' E 009°49'1822.5
2016-May-26 01:33N 42°53' E 009°40'2222.5
2016-May-26 00:33N 43°15' E 009°30'2222.3
2016-May-25 23:34N 43°36' E 009°20'2322.5
2016-May-25 22:33N 43°57' E 009°09'2322.6
2016-May-25 21:33N 44°18' E 008°59'7 6.8
2016-May-25 20:32N 44°25' E 008°55'0 0.0
2016-May-25 19:32N 44°25' E 008°55'0 0.0
2016-May-25 18:28N 44°25' E 008°55'0 0.0
2016-May-25 17:28N 44°25' E 008°55'0 0.2
2016-May-25 16:34N 44°25' E 008°55'1817.7
2016-May-25 15:33N 44°09' E 009°08'2323.2
2016-May-25 14:34N 43°50' E 009°25'2322.9
2016-May-25 13:33N 43°30' E 009°41'2323.2
2016-May-25 12:34N 43°10' E 009°56'30422.6
2016-May-24 23:07N 38°40' E 013°03'1323.6
2016-May-24 22:34N 38°29' E 013°12'2322.7
2016-May-24 21:33N 38°09' E 013°25'3 2.5
2016-May-24 20:31N 38°08' E 013°22'0 0.0
2016-May-24 19:31N 38°08' E 013°22'0 0.0
2016-May-24 18:31N 38°08' E 013°22'0 0.0
2016-May-24 17:33N 38°08' E 013°22'0 0.1
2016-May-24 16:34N 38°08' E 013°22'1413.5
2016-May-24 15:33N 38°21' E 013°17'30122.9
2016-May-24 02:26N 42°38' E 009°51'2123.1
2016-May-24 01:31N 42°57' E 009°40'2122.3
2016-May-24 00:33N 43°17' E 009°31'2121.4
2016-May-23 23:33N 43°37' E 009°20'2121.5
2016-May-23 22:33N 43°57' E 009°09'2221.6
2016-May-23 21:33N 44°18' E 008°59'7 7.4
2016-May-23 20:33N 44°25' E 008°55'0 0.0
2016-May-23 19:33N 44°25' E 008°55'0 0.0
2016-May-23 18:32N 44°25' E 008°55'0 0.0
2016-May-23 17:29N 44°25' E 008°55'0 0.0
2016-May-23 16:31N 44°25' E 008°55'0 0.0
2016-May-23 15:25N 44°25' E 008°55'0 0.0
2016-May-23 14:33N 44°25' E 008°55'0 0.0
2016-May-23 13:30N 44°25' E 008°55'0 0.0
2016-May-23 12:32N 44°25' E 008°55'0 0.0
2016-May-23 11:32N 44°25' E 008°55'0 0.0
2016-May-23 10:32N 44°25' E 008°55'0 0.0
2016-May-23 09:31N 44°25' E 008°55'0 0.0
2016-May-23 08:28N 44°25' E 008°55'0 0.0
2016-May-23 07:33N 44°25' E 008°55'0 0.0
2016-May-23 06:33N 44°25' E 008°55'0 0.0
2016-May-23 05:32N 44°25' E 008°55'0 0.0
2016-May-23 04:29N 44°25' E 008°55'0 0.0
2016-May-23 03:23N 44°25' E 008°55'0 0.0
2016-May-23 02:31N 44°25' E 008°55'0 0.0
2016-May-23 01:31N 44°25' E 008°55'0 0.0
2016-May-23 00:30N 44°25' E 008°55'0 0.0
2016-May-22 23:33N 44°25' E 008°55'0 0.0
2016-May-22 22:32N 44°25' E 008°55'0 0.0
2016-May-22 21:26N 44°25' E 008°55'0 0.0
2016-May-22 20:32N 44°25' E 008°55'0 0.0
2016-May-22 19:31N 44°25' E 008°55'0 0.0
2016-May-22 18:28N 44°25' E 008°55'0 0.0
2016-May-22 17:33N 44°25' E 008°55'1212.2
2016-May-22 16:33N 44°14' E 009°04'2323.4
2016-May-22 15:34N 43°54' E 009°20'2323.2
2016-May-22 14:34N 43°34' E 009°36'2322.9
2016-May-22 13:34N 43°14' E 009°53'2222.1
2016-May-22 12:33N 42°53' E 009°59'4722.7
2016-May-22 10:29N 42°13' E 010°34'11622.9
2016-May-22 05:25N 40°30' E 011°46'8822.7
2016-May-22 01:33N 39°13' E 012°40'2423.1
2016-May-22 00:31N 38°52' E 012°55'2223.1
2016-May-21 23:33N 38°33' E 013°08'2323.0
2016-May-21 22:34N 38°13' E 013°24'5 5.5
2016-May-21 21:33N 38°08' E 013°22'0 0.0
2016-May-21 20:33N 38°08' E 013°22'0 0.0
2016-May-21 19:32N 38°08' E 013°22'0 0.0
2016-May-21 18:32N 38°08' E 013°22'0 0.0
2016-May-21 17:32N 38°08' E 013°22'1 1.1
2016-May-21 16:33N 38°07' E 013°23'1919.0
2016-May-21 15:33N 38°25' E 013°15'27322.7
2016-May-21 03:32N 42°16' E 010°03'2722.3
2016-May-21 02:19N 42°40' E 009°47'1722.5
2016-May-21 01:33N 42°56' E 009°38'2222.1
2016-May-21 00:33N 43°17' E 009°29'2322.6
2016-May-20 23:33N 43°39' E 009°19'2222.4
2016-May-20 22:33N 43°60' E 009°08'2221.9
2016-May-20 21:33N 44°20' E 008°58'5 4.5
2016-May-20 20:32N 44°25' E 008°55'0 0.0
2016-May-20 19:26N 44°25' E 008°55'0 0.0
2016-May-20 18:31N 44°25' E 008°55'0 0.0
2016-May-20 17:31N 44°25' E 008°55'0 0.2
2016-May-20 16:33N 44°25' E 008°55'1413.9
2016-May-20 15:33N 44°13' E 009°06'2323.4
2016-May-20 14:34N 43°53' E 009°23'2322.9
2016-May-20 13:34N 43°33' E 009°38'2322.7
2016-May-20 12:33N 43°13' E 009°53'2221.7
2016-May-20 11:33N 42°52' E 010°01'31422.4
2016-May-19 21:33N 38°17' E 013°21'9 8.7
2016-May-19 20:31N 38°08' E 013°22'0 0.0
2016-May-19 19:34N 38°08' E 013°22'0 0.0
2016-May-19 18:33N 38°08' E 013°22'0 0.0
2016-May-19 17:33N 38°08' E 013°22'1 1.4
2016-May-19 16:33N 38°08' E 013°24'36022.5
2016-May-19 00:33N 43°20' E 009°29'2222.2
2016-May-18 23:33N 43°41' E 009°18'2221.9
2016-May-18 22:33N 44°02' E 009°07'2221.9
2016-May-18 21:33N 44°22' E 008°57'3 2.8
2016-May-18 20:33N 44°25' E 008°55'  

Dump ship's entire track history